createdAt,value
2019-03-30T05:00:56.002Z,156.00
2019-03-30T05:01:56.171Z,176.00
2019-03-30T05:02:56.341Z,196.00
2019-03-30T05:03:56.510Z,216.00
2019-03-30T05:04:56.685Z,236.00
2019-03-30T05:05:56.858Z,264.00
2019-03-30T05:06:57.027Z,288.00
2019-03-30T05:07:57.194Z,312.00
2019-03-30T05:08:57.363Z,344.00
2019-03-30T05:09:57.536Z,372.00
2019-03-30T05:10:57.701Z,400.00
2019-03-30T05:11:57.874Z,428.00
2019-03-30T05:12:58.041Z,456.00
2019-03-30T05:13:58.214Z,488.00
2019-03-30T05:14:58.382Z,520.00
2019-03-30T05:15:58.547Z,560.00
2019-03-30T05:16:58.715Z,596.00
2019-03-30T05:17:58.885Z,632.00
2019-03-30T05:18:59.057Z,676.00
2019-03-30T05:19:59.224Z,716.00
2019-03-30T05:20:59.391Z,752.00
2019-03-30T05:22:11.593Z,788.00
2019-03-30T05:22:59.733Z,828.00
2019-03-30T05:23:59.900Z,880.00
2019-03-30T05:25:00.239Z,924.00
2019-03-30T05:26:00.241Z,968.00
2019-03-30T05:27:00.411Z,1012.00
2019-03-30T05:28:00.580Z,1048.00
2019-03-30T05:29:00.752Z,1080.00
2019-03-30T05:30:00.938Z,1120.00
2019-03-30T05:31:01.092Z,1164.00
2019-03-30T05:32:01.247Z,1220.00
2019-03-30T05:33:06.016Z,1284.00
2019-03-30T05:34:01.585Z,1356.00
2019-03-30T05:35:01.754Z,1444.00
2019-03-30T05:36:01.926Z,1536.00
2019-03-30T05:37:02.094Z,1628.00
2019-03-30T05:38:02.282Z,1708.00
2019-03-30T05:39:02.447Z,1772.00
2019-03-30T05:40:02.614Z,1816.00
2019-03-30T05:41:02.782Z,1860.00
2019-03-30T05:42:02.951Z,1900.00
2019-03-30T05:43:03.119Z,1932.00
2019-03-30T05:44:03.301Z,1972.00
2019-03-30T05:45:03.470Z,2000.00
2019-03-30T05:46:03.630Z,2048.00
2019-03-30T05:47:03.797Z,2104.00
2019-03-30T05:48:03.964Z,2160.00
2019-03-30T05:49:04.130Z,2216.00
2019-03-30T05:50:04.293Z,2264.00
2019-03-30T05:51:04.461Z,2324.00
2019-03-30T05:52:04.645Z,2376.00
2019-03-30T05:53:04.811Z,2432.00
2019-03-30T05:54:04.982Z,2480.00
2019-03-30T05:55:05.150Z,2532.00
2019-03-30T05:56:05.318Z,2584.00
2019-03-30T05:57:05.489Z,2668.00
2019-03-30T05:58:05.662Z,2720.00
2019-03-30T05:59:05.834Z,2768.00
2019-03-30T06:00:06.002Z,2804.00
2019-03-30T06:01:06.171Z,2828.00
2019-03-30T06:02:06.341Z,2868.00
2019-03-30T06:03:06.508Z,2932.00
2019-03-30T06:04:06.677Z,3012.00
2019-03-30T06:05:06.850Z,3080.00
2019-03-30T06:06:07.022Z,3148.00
2019-03-30T06:07:07.189Z,3216.00
2019-03-30T06:08:07.418Z,3264.00
2019-03-30T06:09:07.528Z,3280.00
2019-03-30T06:10:07.700Z,3328.00
2019-03-30T06:11:07.872Z,3384.00
2019-03-30T06:12:08.050Z,3448.00
2019-03-30T06:13:08.232Z,3524.00
2019-03-30T06:14:08.400Z,3608.00
2019-03-30T06:15:08.573Z,3652.00
2019-03-30T06:16:08.745Z,3768.00
2019-03-30T06:17:08.936Z,3852.00
2019-03-30T06:18:11.398Z,3884.00
2019-03-30T06:19:09.250Z,3904.00
2019-03-30T06:20:09.421Z,3948.00
2019-03-30T06:21:09.590Z,4012.00
2019-03-30T06:22:09.762Z,4076.00
2019-03-30T06:23:09.928Z,4120.00
2019-03-30T06:24:10.102Z,4200.00
2019-03-30T06:25:10.265Z,4272.00
2019-03-30T06:26:10.437Z,4344.00
2019-03-30T06:27:10.605Z,4380.00
2019-03-30T06:28:10.772Z,4460.00
2019-03-30T06:29:10.941Z,4508.00
2019-03-30T06:30:11.110Z,4564.00
2019-03-30T06:31:11.281Z,4596.00
2019-03-30T06:32:11.451Z,4632.00
2019-03-30T06:33:11.619Z,4652.00
2019-03-30T06:34:11.790Z,4696.00
2019-03-30T06:35:11.960Z,4760.00
2019-03-30T06:36:12.128Z,4804.00
2019-03-30T06:37:12.295Z,4864.00
2019-03-30T06:38:12.463Z,4908.00
2019-03-30T06:39:12.633Z,4968.00
2019-03-30T06:40:12.806Z,5016.00
2019-03-30T06:41:12.976Z,5056.00
2019-03-30T06:42:13.146Z,5108.00
2019-03-30T06:43:13.319Z,5156.00
2019-03-30T06:44:13.485Z,5200.00
2019-03-30T06:45:13.654Z,5236.00
2019-03-30T06:46:13.826Z,5284.00
2019-03-30T06:47:13.994Z,5332.00
2019-03-30T06:48:14.165Z,5364.00
2019-03-30T06:49:14.335Z,5408.00
2019-03-30T06:50:14.504Z,5472.00
2019-03-30T06:51:14.676Z,5528.00
2019-03-30T06:52:14.844Z,5556.00
2019-03-30T06:53:15.014Z,5492.00
2019-03-30T06:54:15.185Z,5588.00
2019-03-30T06:55:15.356Z,5624.00
2019-03-30T06:56:15.524Z,5632.00
2019-03-30T06:57:15.696Z,5664.00
2019-03-30T06:58:15.868Z,5692.00
2019-03-30T06:59:16.034Z,5736.00
2019-03-30T07:00:16.205Z,5788.00
2019-03-30T07:01:16.374Z,5824.00
2019-03-30T07:02:16.542Z,5848.00
2019-03-30T07:03:16.713Z,5876.00
2019-03-30T07:04:16.883Z,5848.00
2019-03-30T07:05:17.057Z,6028.00
2019-03-30T07:06:17.226Z,6120.00
2019-03-30T07:07:17.395Z,6212.00
2019-03-30T07:08:17.564Z,6288.00
2019-03-30T07:09:17.736Z,6328.00
2019-03-30T07:10:17.905Z,6356.00
2019-03-30T07:11:21.331Z,6392.00
2019-03-30T07:12:18.246Z,6424.00
2019-03-30T07:13:18.419Z,6464.00
2019-03-30T07:14:18.587Z,6464.00
2019-03-30T07:15:18.764Z,6596.00
2019-03-30T07:16:18.933Z,6636.00
2019-03-30T07:17:19.104Z,6696.00
2019-03-30T07:18:19.274Z,6740.00
2019-03-30T07:19:19.455Z,6792.00
2019-03-30T07:20:19.625Z,6848.00
2019-03-30T07:21:19.798Z,6904.00
2019-03-30T07:22:19.965Z,6948.00
2019-03-30T07:23:20.133Z,6980.00
2019-03-30T07:24:20.304Z,7024.00
2019-03-30T07:25:20.474Z,7052.00
2019-03-30T07:26:20.647Z,7088.00
2019-03-30T07:27:20.819Z,7096.00
2019-03-30T07:28:20.994Z,7128.00
2019-03-30T07:29:21.166Z,7172.00
2019-03-30T07:30:21.337Z,7256.00
2019-03-30T07:31:21.510Z,7312.00
2019-03-30T07:32:21.680Z,7388.00
2019-03-30T07:33:21.850Z,7500.00
2019-03-30T07:34:22.023Z,7612.00
2019-03-30T07:35:22.192Z,7696.00
2019-03-30T07:36:22.364Z,7780.00
2019-03-30T07:37:22.535Z,7852.00
2019-03-30T07:38:22.699Z,7924.00
2019-03-30T07:39:22.878Z,8000.00
2019-03-30T07:40:23.050Z,8080.00
2019-03-30T07:41:23.222Z,8140.00
2019-03-30T07:42:23.397Z,8200.00
2019-03-30T07:43:23.566Z,8260.00
2019-03-30T07:44:23.740Z,8344.00
2019-03-30T07:45:23.905Z,8432.00
2019-03-30T07:46:24.072Z,8524.00
2019-03-30T07:47:24.241Z,8648.00
2019-03-30T07:48:24.394Z,8724.00
2019-03-30T07:49:24.572Z,8816.00
2019-03-30T07:50:24.742Z,8624.00
2019-03-30T07:51:24.916Z,8872.00
2019-03-30T07:52:25.087Z,9196.00
2019-03-30T07:53:26.960Z,9292.00
2019-03-30T07:54:25.439Z,9292.00
2019-03-30T07:55:25.611Z,9116.00
2019-03-30T07:56:25.782Z,9276.00
2019-03-30T07:57:25.955Z,9588.00
2019-03-30T07:58:26.130Z,9780.00
2019-03-30T07:59:26.312Z,10048.00
2019-03-30T08:00:30.677Z,10260.00
2019-03-30T08:01:26.650Z,10456.00
2019-03-30T08:02:26.826Z,10312.00
2019-03-30T08:03:27.002Z,10704.00
2019-03-30T08:04:28.682Z,10840.00
2019-03-30T08:05:27.362Z,11008.00
2019-03-30T08:06:27.533Z,11160.00
2019-03-30T08:07:27.708Z,11388.00
2019-03-30T08:08:27.883Z,11328.00
2019-03-30T08:09:28.068Z,10996.00
2019-03-30T08:10:28.241Z,11032.00
2019-03-30T08:11:28.416Z,11376.00
2019-03-30T08:12:28.590Z,12236.00
2019-03-30T08:13:28.846Z,13108.00
2019-03-30T08:14:28.940Z,13200.00
2019-03-30T08:15:29.113Z,13276.00
2019-03-30T08:16:29.289Z,13352.00
2019-03-30T08:17:29.466Z,13516.00
2019-03-30T08:18:29.633Z,13912.00
2019-03-30T08:19:29.807Z,13832.00
2019-03-30T08:20:29.989Z,14116.00
2019-03-30T08:21:30.289Z,14100.00
2019-03-30T08:22:30.361Z,14848.00
2019-03-30T08:23:40.353Z,14816.00
2019-03-30T08:24:30.687Z,15104.00
2019-03-30T08:25:30.877Z,15168.00
2019-03-30T08:26:31.045Z,15584.00
2019-03-30T08:27:31.209Z,15648.00
2019-03-30T08:28:31.381Z,15712.00
2019-03-30T08:29:31.554Z,16672.00
2019-03-30T08:30:31.730Z,16832.00
2019-03-30T08:31:31.909Z,16736.00
2019-03-30T08:32:32.109Z,16928.00
2019-03-30T08:33:32.298Z,17376.00
2019-03-30T08:34:32.444Z,17568.00
2019-03-30T08:35:32.620Z,18048.00
2019-03-30T08:36:32.796Z,18592.00
2019-03-30T08:37:32.972Z,19392.00
2019-03-30T08:38:33.146Z,19616.00
2019-03-30T08:39:33.321Z,19904.00
2019-03-30T08:40:33.494Z,20160.00
2019-03-30T08:41:33.675Z,20352.00
2019-03-30T08:42:33.853Z,20416.00
2019-03-30T08:43:34.028Z,20960.00
2019-03-30T08:44:34.201Z,21280.00
2019-03-30T08:45:34.372Z,21152.00
2019-03-30T08:46:34.538Z,22240.00
2019-03-30T08:47:34.725Z,23104.00
2019-03-30T08:48:34.904Z,24608.00
2019-03-30T08:49:35.078Z,23520.00
2019-03-30T08:50:35.253Z,23712.00
2019-03-30T08:51:35.429Z,24544.00
2019-03-30T08:52:35.606Z,25696.00
2019-03-30T08:53:35.781Z,24864.00
2019-03-30T08:54:35.962Z,26496.00
2019-03-30T08:55:36.193Z,26080.00
2019-03-30T08:56:36.312Z,27232.00
2019-03-30T08:57:36.485Z,27360.00
2019-03-30T08:58:36.662Z,28128.00
2019-03-30T08:59:36.836Z,29440.00
2019-03-30T09:00:37.015Z,29056.00
2019-03-30T09:01:37.188Z,29600.00
2019-03-30T09:02:37.363Z,30560.00
2019-03-30T09:03:37.543Z,30208.00
2019-03-30T09:04:37.729Z,31424.00
2019-03-30T09:05:37.900Z,31360.00
2019-03-30T09:06:38.238Z,30816.00
2019-03-30T09:07:38.251Z,30944.00
2019-03-30T09:08:38.426Z,32928.00
2019-03-30T09:09:38.618Z,34464.00
2019-03-30T09:10:38.784Z,35040.00
2019-03-30T09:11:38.964Z,35040.00
2019-03-30T09:12:39.141Z,33440.00
2019-03-30T09:13:39.322Z,33536.00
2019-03-30T09:14:39.485Z,35104.00
2019-03-30T09:15:39.670Z,35904.00
2019-03-30T09:16:39.851Z,36640.00
2019-03-30T09:17:39.999Z,36704.00
2019-03-30T09:18:40.259Z,37248.00
2019-03-30T09:19:40.362Z,38368.00
2019-03-30T09:20:40.544Z,37728.00
2019-03-30T09:21:40.728Z,38528.00
2019-03-30T09:22:40.904Z,38880.00
2019-03-30T09:23:41.084Z,37760.00
2019-03-30T09:24:41.259Z,37760.00
2019-03-30T09:25:41.440Z,38144.00
2019-03-30T09:26:41.625Z,39264.00
2019-03-30T09:27:41.797Z,40480.00
2019-03-30T09:28:41.975Z,41440.00
2019-03-30T09:29:42.151Z,41792.00
2019-03-30T09:30:42.335Z,42368.00
2019-03-30T09:31:42.509Z,42784.00
2019-03-30T09:32:45.009Z,43264.00
2019-03-30T09:33:42.864Z,45120.00
2019-03-30T09:34:43.045Z,47616.00
2019-03-30T09:35:43.221Z,46848.00
2019-03-30T09:36:43.497Z,45184.00
2019-03-30T09:37:43.596Z,45760.00
2019-03-30T09:38:43.759Z,48576.00
2019-03-30T09:39:43.934Z,48992.00
2019-03-30T09:40:44.109Z,49824.00
2019-03-30T09:41:44.292Z,53376.00
2019-03-30T09:42:44.470Z,53376.00
2019-03-30T09:43:44.647Z,51424.00
2019-03-30T09:44:44.825Z,50624.00
2019-03-30T09:45:45.006Z,49952.00
2019-03-30T09:46:45.186Z,50272.00
2019-03-30T09:47:45.363Z,52288.00
2019-03-30T09:48:45.544Z,52032.00
2019-03-30T09:49:45.721Z,50272.00
2019-03-30T09:50:45.896Z,52608.00
2019-03-30T09:51:46.078Z,55712.00
2019-03-30T09:52:46.249Z,52960.00
2019-03-30T09:53:46.447Z,50368.00
2019-03-30T09:54:46.621Z,51424.00
2019-03-30T09:55:46.803Z,54080.00
2019-03-30T09:56:46.980Z,56800.00
2019-03-30T09:57:47.157Z,57184.00
2019-03-30T09:58:47.340Z,54784.00
2019-03-30T09:59:47.518Z,52448.00
2019-03-30T10:00:47.704Z,53824.00
2019-03-30T10:01:47.869Z,55840.00
2019-03-30T10:02:48.051Z,58496.00
2019-03-30T10:03:48.231Z,60544.00
2019-03-30T10:04:48.417Z,60928.00
2019-03-30T10:05:48.594Z,59968.00
2019-03-30T10:06:48.773Z,57856.00
2019-03-30T10:07:48.955Z,56576.00
2019-03-30T10:08:49.142Z,54688.00
2019-03-30T10:09:49.340Z,56640.00
2019-03-30T10:10:49.516Z,60064.00
2019-03-30T10:11:49.697Z,62816.00
2019-03-30T10:12:49.875Z,63136.00
2019-03-30T10:13:50.059Z,61056.00
2019-03-30T10:14:50.237Z,60288.00
2019-03-30T10:15:50.418Z,61856.00
2019-03-30T10:16:50.598Z,65056.00
2019-03-30T10:17:50.777Z,66944.00
2019-03-30T10:18:50.960Z,66784.00
2019-03-30T10:20:03.685Z,66400.00
2019-03-30T10:20:51.322Z,65024.00
2019-03-30T10:21:51.507Z,64896.00
2019-03-30T10:22:51.685Z,68128.00
2019-03-30T10:23:51.865Z,70144.00
2019-03-30T10:24:52.044Z,67200.00
2019-03-30T10:25:52.226Z,64928.00
2019-03-30T10:26:52.405Z,66304.00
2019-03-30T10:27:52.585Z,64928.00
2019-03-30T10:28:52.766Z,61760.00
2019-03-30T10:29:52.948Z,65216.00
2019-03-30T10:30:53.129Z,66304.00
2019-03-30T10:31:53.310Z,64992.00
2019-03-30T10:32:53.491Z,67552.00
2019-03-30T10:33:53.671Z,68736.00
2019-03-30T10:34:53.851Z,66048.00
2019-03-30T10:35:54.034Z,64736.00
2019-03-30T10:36:54.222Z,67328.00
2019-03-30T10:37:54.398Z,67680.00
2019-03-30T10:38:54.579Z,68768.00
2019-03-30T10:39:54.757Z,71392.00
2019-03-30T10:40:54.940Z,71488.00
2019-03-30T10:41:55.129Z,69248.00
2019-03-30T10:42:55.308Z,68352.00
2019-03-30T10:43:55.491Z,73184.00
2019-03-30T10:44:55.671Z,74464.00
2019-03-30T10:45:55.868Z,71040.00
2019-03-30T10:46:56.025Z,68736.00
2019-03-30T10:47:56.230Z,71968.00
2019-03-30T10:48:56.470Z,75552.00
2019-03-30T10:49:56.567Z,75232.00
2019-03-30T10:50:56.764Z,72928.00
2019-03-30T10:51:56.930Z,69152.00
2019-03-30T10:52:57.107Z,67424.00
2019-03-30T10:53:57.287Z,67168.00
2019-03-30T10:54:57.468Z,69184.00
2019-03-30T10:55:57.646Z,72352.00
2019-03-30T10:56:57.834Z,71872.00
2019-03-30T10:57:58.824Z,70464.00
2019-03-30T10:58:58.205Z,72320.00
2019-03-30T10:59:58.389Z,76160.00
2019-03-30T11:00:58.604Z,74752.00
2019-03-30T11:01:58.750Z,72128.00
2019-03-30T11:02:58.932Z,72992.00
2019-03-30T11:03:59.122Z,74496.00
2019-03-30T11:04:59.298Z,74752.00
2019-03-30T11:05:59.479Z,74016.00
2019-03-30T11:06:59.661Z,74048.00
2019-03-30T11:07:59.845Z,74784.00
2019-03-30T11:09:00.029Z,73760.00
2019-03-30T11:10:00.210Z,74528.00
2019-03-30T11:11:00.392Z,76960.00
2019-03-30T11:12:00.574Z,76512.00
2019-03-30T11:13:00.803Z,75328.00
2019-03-30T11:14:00.937Z,76192.00
2019-03-30T11:15:01.125Z,78720.00
2019-03-30T11:16:01.307Z,79072.00
2019-03-30T11:17:01.487Z,77792.00
2019-03-30T11:18:01.674Z,77536.00
2019-03-30T11:19:01.855Z,77888.00
2019-03-30T11:20:02.044Z,81056.00
2019-03-30T11:21:02.219Z,82016.00
2019-03-30T11:22:03.386Z,82080.00
2019-03-30T11:23:02.591Z,80544.00
2019-03-30T11:24:05.095Z,80640.00
2019-03-30T11:25:08.032Z,80128.00
2019-03-30T11:26:03.140Z,27040.00
2019-03-30T11:27:03.320Z,21952.00
2019-03-30T11:28:03.504Z,22688.00
2019-03-30T11:29:03.691Z,19488.00
2019-03-30T11:30:03.871Z,19904.00
2019-03-30T11:31:05.546Z,18592.00
2019-03-30T11:32:04.239Z,20288.00
2019-03-30T11:33:04.424Z,21216.00
2019-03-30T11:34:05.513Z,18816.00
2019-03-30T11:35:04.783Z,21216.00
2019-03-30T11:36:04.964Z,27072.00
2019-03-30T11:37:05.154Z,18464.00
2019-03-30T11:38:05.334Z,16476.00
2019-03-30T11:39:05.511Z,15248.00
2019-03-30T11:40:05.691Z,14696.00
2019-03-30T11:41:05.876Z,13976.00
2019-03-30T11:42:06.058Z,14036.00
2019-03-30T11:43:06.237Z,14636.00
2019-03-30T11:44:06.480Z,15216.00
2019-03-30T11:45:06.596Z,15508.00
2019-03-30T11:46:06.774Z,15540.00
2019-03-30T11:47:06.952Z,15052.00
2019-03-30T11:48:07.131Z,14544.00
2019-03-30T11:49:07.312Z,14636.00
2019-03-30T11:50:07.493Z,15336.00
2019-03-30T11:51:07.669Z,16476.00
2019-03-30T11:52:07.849Z,15860.00
2019-03-30T11:53:08.025Z,14720.00
2019-03-30T11:54:08.204Z,13968.00
2019-03-30T11:55:21.033Z,13492.00
2019-03-30T11:56:08.566Z,13768.00
2019-03-30T11:57:08.830Z,14088.00
2019-03-30T11:58:08.914Z,13564.00
2019-03-30T11:59:09.093Z,13440.00
2019-03-30T12:00:09.273Z,14124.00
2019-03-30T12:01:09.446Z,14968.00
2019-03-30T12:02:09.623Z,15488.00
2019-03-30T12:03:09.803Z,16172.00
2019-03-30T12:04:09.979Z,18208.00
2019-03-30T12:05:10.156Z,22272.00
2019-03-30T12:06:10.330Z,87296.00
2019-03-30T12:07:10.508Z,25504.00
2019-03-30T12:08:10.687Z,70048.00
2019-03-30T12:09:10.863Z,45056.00
2019-03-30T12:10:11.040Z,45824.00
2019-03-30T12:11:11.220Z,36992.00
2019-03-30T12:12:11.413Z,70176.00
2019-03-30T12:13:11.585Z,87392.00
2019-03-30T12:14:11.752Z,24480.00
2019-03-30T12:15:11.930Z,23168.00
2019-03-30T12:16:12.107Z,36448.00
2019-03-30T12:17:12.283Z,19648.00
2019-03-30T12:18:12.459Z,20640.00
2019-03-30T12:19:12.638Z,22272.00
2019-03-30T12:20:12.817Z,21952.00
2019-03-30T12:21:12.994Z,20896.00
2019-03-30T12:22:13.171Z,46592.00
2019-03-30T12:23:13.351Z,102112.00
2019-03-30T12:24:13.530Z,99040.00
2019-03-30T12:25:13.706Z,101216.00
2019-03-30T12:26:13.888Z,104928.00
2019-03-30T12:27:14.064Z,104032.00
2019-03-30T12:28:14.244Z,103232.00
2019-03-30T12:29:14.443Z,103200.00
2019-03-30T12:30:14.636Z,100928.00
2019-03-30T12:31:14.798Z,98528.00
2019-03-30T12:32:14.991Z,98688.00
2019-03-30T12:33:15.155Z,97856.00
2019-03-30T12:34:15.336Z,96928.00
2019-03-30T12:35:15.516Z,97120.00
2019-03-30T12:36:15.698Z,99104.00
2019-03-30T12:37:15.885Z,99456.00
2019-03-30T12:38:16.059Z,99392.00
2019-03-30T12:39:16.238Z,99232.00
2019-03-30T12:40:16.423Z,100000.00
2019-03-30T12:41:16.606Z,96960.00
2019-03-30T12:42:16.804Z,95520.00
2019-03-30T12:43:16.976Z,95552.00
2019-03-30T12:44:17.156Z,96288.00
2019-03-30T12:45:17.338Z,97696.00
2019-03-30T12:46:17.523Z,100352.00
2019-03-30T12:47:17.706Z,104224.00
2019-03-30T12:48:17.887Z,107840.00
2019-03-30T12:49:18.069Z,106592.00
2019-03-30T12:50:18.253Z,98368.00
2019-03-30T12:51:18.436Z,89696.00
2019-03-30T12:52:18.618Z,89824.00
2019-03-30T12:53:18.802Z,98848.00
2019-03-30T12:54:18.986Z,106176.00
2019-03-30T12:55:19.169Z,102208.00
2019-03-30T12:56:19.352Z,94112.00
2019-03-30T12:57:19.536Z,89344.00
2019-03-30T12:58:19.718Z,77888.00
2019-03-30T12:59:19.901Z,97504.00
2019-03-30T13:00:20.085Z,54880.00
2019-03-30T13:01:20.270Z,92704.00
2019-03-30T13:02:20.450Z,96160.00
2019-03-30T13:03:20.633Z,93216.00
2019-03-30T13:04:20.817Z,52160.00
2019-03-30T13:05:20.992Z,87872.00
2019-03-30T13:06:21.176Z,92256.00
2019-03-30T13:07:21.360Z,95968.00
2019-03-30T13:08:21.541Z,18912.00
2019-03-30T13:09:21.726Z,19872.00
2019-03-30T13:10:21.909Z,95584.00
2019-03-30T13:11:22.091Z,91360.00
2019-03-30T13:12:22.275Z,64992.00
2019-03-30T13:13:22.459Z,91328.00
2019-03-30T13:14:22.642Z,93632.00
2019-03-30T13:15:22.824Z,92864.00
2019-03-30T13:16:26.205Z,94112.00
2019-03-30T13:17:23.194Z,94080.00
2019-03-30T13:18:23.380Z,95008.00
2019-03-30T13:19:23.574Z,97056.00
2019-03-30T13:20:23.757Z,98048.00
2019-03-30T13:21:23.938Z,98784.00
2019-03-30T13:22:24.128Z,97920.00
2019-03-30T13:23:24.306Z,98400.00
2019-03-30T13:24:24.492Z,97024.00
2019-03-30T13:25:24.673Z,94240.00
2019-03-30T13:26:24.857Z,91840.00
2019-03-30T13:27:25.037Z,88608.00
2019-03-30T13:28:25.221Z,89664.00
2019-03-30T13:29:25.404Z,93088.00
2019-03-30T13:30:25.588Z,92320.00
2019-03-30T13:31:25.773Z,88064.00
2019-03-30T13:32:25.955Z,89824.00
2019-03-30T13:33:26.138Z,91904.00
2019-03-30T13:34:26.319Z,90880.00
2019-03-30T13:35:26.504Z,90944.00
2019-03-30T13:36:26.688Z,88480.00
2019-03-30T13:37:26.869Z,83904.00
2019-03-30T13:38:27.063Z,83488.00
2019-03-30T13:39:27.237Z,87968.00
2019-03-30T13:40:27.431Z,87296.00
2019-03-30T13:41:27.614Z,87744.00
2019-03-30T13:42:27.797Z,87328.00
2019-03-30T13:43:27.981Z,89472.00
2019-03-30T13:44:28.163Z,89312.00
2019-03-30T13:45:28.360Z,87072.00
2019-03-30T13:46:28.540Z,85728.00
2019-03-30T13:47:28.725Z,86848.00
2019-03-30T13:48:28.915Z,88928.00
2019-03-30T13:49:29.818Z,82656.00
2019-03-30T13:50:31.022Z,81568.00
2019-03-30T13:51:29.462Z,81792.00
2019-03-30T13:52:29.646Z,89408.00
2019-03-30T13:53:29.830Z,90688.00
2019-03-30T13:54:30.014Z,62176.00
2019-03-30T13:55:30.197Z,43104.00
2019-03-30T13:56:30.379Z,83264.00
2019-03-30T13:57:30.570Z,39328.00
2019-03-30T13:58:30.746Z,84768.00
2019-03-30T13:59:30.939Z,81696.00
2019-03-30T14:00:31.127Z,80064.00
2019-03-30T14:41:20.231Z,76224.00
2019-03-30T14:42:20.416Z,78656.00
2019-03-30T14:43:20.599Z,79008.00
2019-03-30T14:44:20.782Z,77184.00
2019-03-30T14:45:20.968Z,78784.00
2019-03-30T14:46:21.147Z,80736.00
2019-03-30T14:47:21.332Z,76320.00
2019-03-30T14:48:21.518Z,68608.00
2019-03-30T14:49:21.704Z,68064.00
2019-03-30T14:50:21.885Z,65696.00
2019-03-30T14:51:22.068Z,68576.00
2019-03-30T14:52:22.253Z,69056.00
2019-03-30T14:53:22.460Z,64736.00
2019-03-30T14:54:22.625Z,62752.00
2019-03-30T14:55:22.806Z,58880.00
2019-03-30T14:56:22.990Z,68768.00
2019-03-30T14:57:23.174Z,70944.00
2019-03-30T14:58:23.400Z,72832.00
2019-03-30T14:59:23.541Z,69696.00
2019-03-30T15:00:23.767Z,62560.00
2019-03-30T15:01:23.907Z,56320.00
2019-03-30T15:02:24.096Z,60256.00
2019-03-30T15:03:24.278Z,70496.00
2019-03-30T15:04:24.463Z,64896.00
2019-03-30T15:05:24.644Z,65248.00
2019-03-30T15:06:24.832Z,61440.00
2019-03-30T15:07:25.013Z,55072.00
2019-03-30T15:08:25.198Z,63776.00
2019-03-30T15:09:25.381Z,63936.00
2019-03-30T15:10:25.562Z,54624.00
2019-03-30T15:11:25.750Z,50560.00
2019-03-30T15:12:25.931Z,43040.00
2019-03-30T15:13:26.115Z,42592.00
2019-03-30T15:14:26.297Z,19200.00
2019-03-30T15:15:26.478Z,37056.00
2019-03-30T15:16:26.663Z,60544.00
2019-03-30T15:17:26.847Z,62432.00
2019-03-30T15:18:27.033Z,59744.00
2019-03-30T15:19:27.215Z,59904.00
2019-03-30T15:20:27.394Z,59168.00
2019-03-30T15:21:27.574Z,53824.00
2019-03-30T15:22:27.757Z,58752.00
2019-03-30T15:23:27.939Z,16424.00
2019-03-30T15:24:28.123Z,49664.00
2019-03-30T15:25:28.306Z,26784.00
2019-03-30T15:26:28.484Z,16092.00
2019-03-30T15:27:28.664Z,29984.00
2019-03-30T15:28:28.846Z,19520.00
2019-03-30T15:29:29.022Z,43360.00
2019-03-30T15:30:29.211Z,46592.00
2019-03-30T15:31:29.393Z,42048.00
2019-03-30T15:32:29.574Z,39552.00
2019-03-30T15:33:29.761Z,43712.00
2019-03-30T15:34:29.935Z,50592.00
2019-03-30T15:35:30.116Z,51392.00
2019-03-30T15:36:30.304Z,43680.00
2019-03-30T15:37:30.480Z,14112.00
2019-03-30T15:38:30.662Z,41280.00
2019-03-30T15:39:30.844Z,43744.00
2019-03-30T15:40:31.028Z,26720.00
2019-03-30T15:41:31.216Z,12268.00
2019-03-30T15:42:31.393Z,11044.00
2019-03-30T15:43:38.045Z,10788.00
2019-03-30T15:44:31.747Z,13824.00
2019-03-30T15:45:31.933Z,33312.00
2019-03-30T15:46:32.111Z,11376.00
2019-03-30T15:47:32.286Z,11824.00
2019-03-30T15:48:32.470Z,39008.00
2019-03-30T15:49:32.644Z,34656.00
2019-03-30T15:50:32.822Z,35968.00
2019-03-30T15:51:33.002Z,36032.00
2019-03-30T15:52:33.181Z,37152.00
2019-03-30T15:53:33.365Z,37024.00
2019-03-30T15:54:33.540Z,39072.00
2019-03-30T15:55:33.717Z,37792.00
2019-03-30T15:56:33.896Z,35872.00
2019-03-30T15:57:34.077Z,30144.00
2019-03-30T15:58:34.265Z,11540.00
2019-03-30T15:59:34.438Z,25344.00
2019-03-30T16:00:34.617Z,23456.00
2019-03-30T16:01:34.799Z,24768.00
2019-03-30T16:02:34.996Z,28800.00
2019-03-30T16:03:35.153Z,28352.00
2019-03-30T16:04:35.331Z,28128.00
2019-03-30T16:05:35.509Z,25920.00
2019-03-30T16:06:35.690Z,19072.00
2019-03-30T16:07:35.870Z,19264.00
2019-03-30T16:08:36.042Z,20512.00
2019-03-30T16:09:36.219Z,27744.00
2019-03-30T16:10:36.402Z,22912.00
2019-03-30T16:11:36.579Z,25728.00
2019-03-30T16:12:36.757Z,26112.00
2019-03-30T16:13:36.936Z,16992.00
2019-03-30T16:14:37.117Z,13692.00
2019-03-30T16:15:37.296Z,12296.00
2019-03-30T16:16:37.479Z,12200.00
2019-03-30T16:17:37.652Z,13340.00
2019-03-30T16:18:37.830Z,15232.00
2019-03-30T16:19:38.009Z,15360.00
2019-03-30T16:20:38.189Z,17728.00
2019-03-30T16:21:38.365Z,18304.00
2019-03-30T16:22:38.545Z,17376.00
2019-03-30T16:23:38.720Z,16480.00
2019-03-30T16:24:38.965Z,20512.00
2019-03-30T16:25:39.082Z,16064.00
2019-03-30T16:26:42.342Z,18240.00
2019-03-30T16:27:39.763Z,19584.00
2019-03-30T16:28:39.625Z,16896.00
2019-03-30T16:29:39.807Z,18976.00
2019-03-30T16:30:39.989Z,9604.00
2019-03-30T16:31:40.169Z,12048.00
2019-03-30T16:32:40.353Z,10792.00
2019-03-30T16:33:40.527Z,9152.00
2019-03-30T16:34:40.704Z,7620.00
2019-03-30T16:35:40.884Z,7024.00
2019-03-30T16:36:41.066Z,6748.00
2019-03-30T16:37:41.249Z,6596.00
2019-03-30T16:38:41.426Z,7872.00
2019-03-30T16:39:41.608Z,10008.00
2019-03-30T16:40:41.785Z,9104.00
2019-03-30T16:41:41.963Z,6716.00
2019-03-30T16:42:42.141Z,5848.00
2019-03-30T16:43:42.315Z,5748.00
2019-03-30T16:44:42.494Z,6456.00
2019-03-30T16:45:42.666Z,8028.00
2019-03-30T16:46:42.847Z,8524.00
2019-03-30T16:47:43.021Z,8696.00
2019-03-30T16:48:43.197Z,8224.00
2019-03-30T16:49:43.376Z,10368.00
2019-03-30T16:50:43.553Z,10312.00
2019-03-30T16:51:43.731Z,8556.00
2019-03-30T16:52:43.909Z,8456.00
2019-03-30T16:53:47.173Z,7736.00
2019-03-30T16:54:44.265Z,6336.00
2019-03-30T16:55:44.444Z,5328.00
2019-03-30T16:56:44.616Z,4556.00
2019-03-30T16:57:44.793Z,4452.00
2019-03-30T16:58:44.966Z,4668.00
2019-03-30T16:59:45.148Z,5732.00
2019-03-30T17:00:56.322Z,6520.00
2019-03-30T17:01:45.500Z,6176.00
2019-03-30T17:02:45.676Z,5144.00
2019-03-30T17:03:45.850Z,5260.00
2019-03-30T17:04:46.026Z,5880.00
2019-03-30T17:05:46.206Z,6076.00
2019-03-30T17:06:46.384Z,5268.00
2019-03-30T17:07:46.554Z,5468.00
2019-03-30T17:08:46.731Z,4936.00
2019-03-30T17:09:46.905Z,3452.00
2019-03-30T17:10:47.081Z,3044.00
2019-03-30T17:11:47.257Z,3104.00
2019-03-30T17:12:47.432Z,3124.00
2019-03-30T17:13:47.607Z,2852.00
2019-03-30T17:14:47.785Z,2608.00
2019-03-30T17:15:47.963Z,2440.00
2019-03-30T17:16:48.143Z,2428.00
2019-03-30T17:17:48.316Z,2748.00
2019-03-30T17:18:48.495Z,2532.00
2019-03-30T17:19:48.675Z,2156.00
2019-03-30T17:20:48.851Z,1984.00
2019-03-30T17:21:49.028Z,1756.00
2019-03-30T17:22:49.205Z,1664.00
2019-03-30T17:23:49.381Z,1588.00
2019-03-30T17:24:49.555Z,1512.00
2019-03-30T17:25:49.736Z,1440.00
2019-03-30T17:26:49.910Z,1368.00
2019-03-30T17:27:57.969Z,1296.00
2019-03-30T17:28:50.262Z,1228.00
2019-03-30T17:29:50.437Z,1164.00
2019-03-30T17:30:50.616Z,1100.00
2019-03-30T17:31:50.790Z,1036.00
2019-03-30T17:32:50.966Z,976.00
2019-03-30T17:33:51.147Z,916.00